Time;durP1;ratioP1;P1;durP2;ratioP2;P2;SDS_P1;SDS_P2;PMS_P1;PMS_P2;Temp;Humidity;BMP_temperature;BMP_pressure;BME280_temperature;BME280_humidity;BME280_pressure;Samples;Min_cycle;Max_cycle;Signal;HPM_P1;HPM_P2
2023/07/12 00:00:32;;;;;;;;;;;20.50;99.90;;;;;;5072944;28;20376;-44
2023/07/12 00:02:58;;;;;;;;;;;20.50;99.90;;;;;;5075842;28;19928;-44
2023/07/12 00:05:26;;;;;;;;;;;20.40;99.90;;;;;;5074679;28;19928;-43
2023/07/12 00:07:53;;;;;;;;;;;20.40;99.90;;;;;;5072711;28;19975;-44
2023/07/12 00:10:20;;;;;;;;;;;20.30;99.90;;;;;;5071404;28;19970;-44
2023/07/12 00:12:47;;;;;;;;;;;20.20;99.90;;;;;;5075699;28;20307;-44
2023/07/12 00:15:21;;;;;;;;;;;20.20;99.90;;;;;;5074568;28;20391;-44
2023/07/12 00:17:49;;;;;;;;;;;20.20;99.90;;;;;;5071792;28;19978;-43
2023/07/12 00:20:17;;;;;;;;;;;20.10;99.90;;;;;;5075545;28;19924;-43
2023/07/12 00:22:44;;;;;;;;;;;20.10;99.90;;;;;;5085761;28;19924;-43
2023/07/12 00:25:11;;;;;;;;;;;20.10;99.90;;;;;;5079365;28;19970;-44
2023/07/12 00:27:37;;;;;;;;;;;20.10;99.90;;;;;;5072319;28;19924;-43
2023/07/12 00:30:09;;;;;;;;;;;20.10;99.90;;;;;;5071203;28;19925;-44
2023/07/12 00:32:36;;;;;;;;;;;20.10;99.90;;;;;;5073361;28;19928;-43
2023/07/12 00:35:04;;;;;;;;;;;20.10;99.90;;;;;;5072882;28;19928;-43
2023/07/12 00:37:31;;;;;;;;;;;20.10;99.90;;;;;;5068119;28;19928;-41
2023/07/12 00:39:58;;;;;;;;;;;20.10;99.90;;;;;;5079657;28;19931;-44
2023/07/12 00:42:27;;;;;;;;;;;20.10;99.90;;;;;;5082182;28;19929;-44
2023/07/12 00:44:55;;;;;;;;;;;20.00;99.90;;;;;;5073400;28;19928;-44
2023/07/12 00:47:24;;;;;;;;;;;20.00;99.90;;;;;;5083562;28;19928;-44
2023/07/12 00:49:51;;;;;;;;;;;20.00;99.90;;;;;;5074161;28;19924;-44
2023/07/12 00:52:20;;;;;;;;;;;19.90;99.90;;;;;;5063241;28;19931;-44
2023/07/12 00:54:48;;;;;;;;;;;19.90;99.90;;;;;;5085384;28;19924;-44
2023/07/12 00:57:14;;;;;;;;;;;19.90;99.90;;;;;;5072874;28;19998;-43
2023/07/12 00:59:41;;;;;;;;;;;19.90;99.90;;;;;;5077510;28;20379;-44
2023/07/12 01:02:07;;;;;;;;;;;19.80;99.90;;;;;;5076111;28;19924;-44
2023/07/12 01:04:36;;;;;;;;;;;19.80;99.90;;;;;;5087013;28;19976;-43
2023/07/12 01:07:02;;;;;;;;;;;19.80;99.90;;;;;;5071614;28;19933;-43
2023/07/12 01:09:30;;;;;;;;;;;19.80;99.90;;;;;;5076971;28;20351;-44
2023/07/12 01:11:57;;;;;;;;;;;19.80;99.90;;;;;;5068929;28;19928;-44
2023/07/12 01:14:24;;;;;;;;;;;19.80;99.90;;;;;;5060924;28;19968;-43
2023/07/12 01:16:51;;;;;;;;;;;19.80;99.90;;;;;;5093389;27;20403;-41
2023/07/12 01:19:18;;;;;;;;;;;19.70;99.90;;;;;;5078550;28;19932;-42
2023/07/12 01:21:47;;;;;;;;;;;19.70;99.90;;;;;;5079496;28;20356;-43
2023/07/12 01:24:14;;;;;;;;;;;19.80;99.90;;;;;;5073183;28;19947;-42
2023/07/12 01:26:41;;;;;;;;;;;19.70;99.90;;;;;;5065425;28;19933;-43
2023/07/12 01:29:08;;;;;;;;;;;19.70;99.90;;;;;;5071055;28;20403;-43
2023/07/12 01:31:35;;;;;;;;;;;19.70;99.90;;;;;;5082974;28;19932;-43
2023/07/12 01:34:01;;;;;;;;;;;19.70;99.90;;;;;;5071954;28;19990;-42
2023/07/12 01:36:28;;;;;;;;;;;19.60;99.90;;;;;;5071570;28;19928;-42
2023/07/12 01:38:57;;;;;;;;;;;19.60;99.90;;;;;;5114398;27;19924;-43
2023/07/12 01:41:23;;;;;;;;;;;19.60;99.90;;;;;;5059057;28;19929;-42
2023/07/12 01:43:50;;;;;;;;;;;19.60;99.90;;;;;;5080214;28;20003;-43
2023/07/12 01:46:17;;;;;;;;;;;19.60;99.90;;;;;;5090880;28;19973;-43
2023/07/12 01:48:43;;;;;;;;;;;19.60;99.90;;;;;;5091129;28;19932;-42
2023/07/12 01:51:10;;;;;;;;;;;19.60;99.90;;;;;;5075970;28;20281;-42
2023/07/12 01:53:37;;;;;;;;;;;19.50;99.90;;;;;;5084988;28;19971;-42
2023/07/12 01:56:05;;;;;;;;;;;19.50;99.90;;;;;;5073513;28;20335;-45
2023/07/12 01:58:32;;;;;;;;;;;19.50;99.90;;;;;;5088465;28;19931;-42
2023/07/12 02:00:59;;;;;;;;;;;19.50;99.90;;;;;;5088987;28;19924;-42
2023/07/12 02:03:25;;;;;;;;;;;19.40;99.90;;;;;;5083721;28;19955;-41
2023/07/12 02:05:52;;;;;;;;;;;19.40;99.90;;;;;;5091778;28;20273;-42
2023/07/12 02:08:19;;;;;;;;;;;19.40;99.90;;;;;;5088902;28;19928;-43
2023/07/12 02:10:46;;;;;;;;;;;19.40;99.90;;;;;;5081126;28;20266;-42
2023/07/12 02:13:14;;;;;;;;;;;19.40;99.90;;;;;;5091136;28;19924;-42
2023/07/12 02:15:41;;;;;;;;;;;19.30;99.90;;;;;;5125289;28;19981;-42
2023/07/12 02:18:07;;;;;;;;;;;19.30;99.90;;;;;;5087502;28;19925;-42
2023/07/12 02:20:34;;;;;;;;;;;19.30;99.90;;;;;;5075244;28;19924;-42
2023/07/12 02:23:01;;;;;;;;;;;19.20;99.90;;;;;;5089973;28;19924;-43
2023/07/12 02:25:27;;;;;;;;;;;19.20;99.90;;;;;;5080100;28;19924;-42
2023/07/12 02:27:54;;;;;;;;;;;19.20;99.90;;;;;;5069541;28;19933;-42
2023/07/12 02:30:22;;;;;;;;;;;19.10;99.90;;;;;;5071962;28;19928;-42
2023/07/12 02:32:49;;;;;;;;;;;19.00;99.90;;;;;;5082769;28;19978;-42
2023/07/12 02:35:16;;;;;;;;;;;19.00;99.90;;;;;;5075804;28;19930;-42
2023/07/12 02:37:43;;;;;;;;;;;18.90;99.90;;;;;;5061368;28;19935;-42
2023/07/12 02:40:10;;;;;;;;;;;18.80;99.90;;;;;;5074631;28;20376;-42
2023/07/12 02:42:36;;;;;;;;;;;18.80;99.90;;;;;;5083328;28;20333;-43
2023/07/12 02:45:03;;;;;;;;;;;18.80;99.90;;;;;;5080677;28;19936;-42
2023/07/12 02:47:31;;;;;;;;;;;18.80;99.90;;;;;;5074995;28;19924;-42
2023/07/12 02:49:58;;;;;;;;;;;18.80;99.90;;;;;;5084696;28;19940;-42
2023/07/12 02:52:25;;;;;;;;;;;18.80;99.90;;;;;;5086838;28;19924;-42
2023/07/12 02:54:51;;;;;;;;;;;18.80;99.90;;;;;;5079262;28;19924;-42
2023/07/12 02:57:18;;;;;;;;;;;18.70;99.90;;;;;;5085148;28;20364;-42
2023/07/12 02:59:45;;;;;;;;;;;18.70;99.90;;;;;;5091050;28;19978;-42
2023/07/12 03:02:12;;;;;;;;;;;18.60;99.90;;;;;;5074961;28;19928;-42
2023/07/12 03:04:40;;;;;;;;;;;18.60;99.90;;;;;;5072906;28;19978;-43
2023/07/12 03:07:07;;;;;;;;;;;18.50;99.90;;;;;;5063387;28;20296;-43
2023/07/12 03:09:39;;;;;;;;;;;18.50;99.90;;;;;;5088278;28;19931;-43
2023/07/12 03:12:06;;;;;;;;;;;18.50;99.90;;;;;;5122142;27;20398;-43
2023/07/12 03:14:33;;;;;;;;;;;18.40;99.90;;;;;;5074571;28;20335;-42
2023/07/12 03:16:59;;;;;;;;;;;18.40;99.90;;;;;;5074075;28;19924;-42
2023/07/12 03:19:26;;;;;;;;;;;18.50;99.90;;;;;;5074096;28;19956;-42
2023/07/12 03:21:54;;;;;;;;;;;18.50;99.90;;;;;;5072893;28;20005;-42
2023/07/12 03:24:21;;;;;;;;;;;18.50;99.90;;;;;;5089161;28;20339;-43
2023/07/12 03:26:47;;;;;;;;;;;18.50;99.90;;;;;;5083397;28;19924;-43
2023/07/12 03:29:14;;;;;;;;;;;18.50;99.90;;;;;;5085038;28;20000;-43
2023/07/12 03:31:41;;;;;;;;;;;18.50;99.90;;;;;;5078761;28;19924;-42
2023/07/12 03:34:07;;;;;;;;;;;18.40;99.90;;;;;;5106043;28;19928;-42
2023/07/12 03:36:34;;;;;;;;;;;18.40;99.90;;;;;;5074363;28;19983;-43
2023/07/12 03:39:03;;;;;;;;;;;18.40;99.90;;;;;;5113702;27;19932;-43
2023/07/12 03:41:30;;;;;;;;;;;18.40;99.90;;;;;;5069316;28;20447;-43
2023/07/12 03:43:57;;;;;;;;;;;18.40;99.90;;;;;;5073155;28;19986;-43
2023/07/12 03:46:23;;;;;;;;;;;18.40;99.90;;;;;;5073003;28;19924;-43
2023/07/12 03:48:50;;;;;;;;;;;18.40;99.90;;;;;;5086237;28;19924;-43
2023/07/12 03:51:18;;;;;;;;;;;18.30;99.90;;;;;;5074524;28;20253;-42
2023/07/12 03:53:45;;;;;;;;;;;18.30;99.90;;;;;;5057141;28;20416;-43
2023/07/12 03:56:13;;;;;;;;;;;18.30;99.90;;;;;;5073513;28;19978;-43
2023/07/12 03:58:39;;;;;;;;;;;18.30;99.90;;;;;;5077192;28;19928;-43
2023/07/12 04:01:07;;;;;;;;;;;18.20;99.90;;;;;;5082294;28;19961;-43
2023/07/12 04:03:34;;;;;;;;;;;18.30;99.90;;;;;;5089899;28;19924;-43
2023/07/12 04:06:01;;;;;;;;;;;18.20;99.90;;;;;;5074933;28;20003;-43
2023/07/12 04:08:28;;;;;;;;;;;18.20;99.90;;;;;;5078816;28;20289;-43
2023/07/12 04:10:55;;;;;;;;;;;18.20;99.90;;;;;;5082374;28;19936;-44
2023/07/12 04:13:23;;;;;;;;;;;18.20;99.90;;;;;;5078745;28;19936;-42
2023/07/12 04:15:51;;;;;;;;;;;18.20;99.90;;;;;;5076859;28;19955;-43
2023/07/12 04:18:17;;;;;;;;;;;18.20;99.90;;;;;;5071530;28;19928;-41
2023/07/12 04:20:44;;;;;;;;;;;18.20;99.90;;;;;;5099749;28;19925;-43
2023/07/12 04:23:11;;;;;;;;;;;18.10;99.90;;;;;;5080060;28;19924;-42
2023/07/12 04:25:37;;;;;;;;;;;18.10;99.90;;;;;;5072521;28;19947;-43
2023/07/12 04:28:04;;;;;;;;;;;18.10;99.90;;;;;;5073287;28;19929;-43
2023/07/12 04:30:32;;;;;;;;;;;18.10;99.90;;;;;;5088858;28;19924;-43
2023/07/12 04:32:59;;;;;;;;;;;18.10;99.90;;;;;;5077859;28;19924;-42
2023/07/12 04:35:25;;;;;;;;;;;18.10;99.90;;;;;;5081444;28;19928;-43
2023/07/12 04:37:55;;;;;;;;;;;18.10;99.90;;;;;;5072483;28;19924;-43
2023/07/12 04:40:22;;;;;;;;;;;18.00;99.90;;;;;;5071716;28;20277;-43
2023/07/12 04:42:48;;;;;;;;;;;17.90;99.90;;;;;;5101943;28;19924;-43
2023/07/12 04:45:15;;;;;;;;;;;17.90;99.90;;;;;;5061287;28;19964;-43
2023/07/12 04:47:44;;;;;;;;;;;17.90;99.90;;;;;;5070824;28;19959;-42
2023/07/12 04:50:11;;;;;;;;;;;17.80;99.90;;;;;;5085775;28;19924;-43
2023/07/12 04:52:38;;;;;;;;;;;17.80;99.90;;;;;;5069755;28;19924;-42
2023/07/12 04:55:05;;;;;;;;;;;17.80;99.90;;;;;;5081614;28;20396;-42
2023/07/12 04:57:32;;;;;;;;;;;17.80;99.90;;;;;;5070190;28;19928;-43
2023/07/12 04:59:58;;;;;;;;;;;17.80;99.90;;;;;;5069553;28;19979;-43
2023/07/12 05:02:25;;;;;;;;;;;17.90;99.90;;;;;;5064248;28;19939;-42
2023/07/12 05:04:53;;;;;;;;;;;17.90;99.90;;;;;;5056447;28;19936;-43
2023/07/12 05:07:20;;;;;;;;;;;17.90;99.90;;;;;;5065212;28;19940;-44
2023/07/12 05:09:46;;;;;;;;;;;17.90;99.90;;;;;;5062525;28;19932;-43
2023/07/12 05:12:13;;;;;;;;;;;17.90;99.90;;;;;;5068021;28;19931;-43
2023/07/12 05:14:40;;;;;;;;;;;17.90;99.90;;;;;;5062655;28;19925;-43
2023/07/12 05:17:06;;;;;;;;;;;17.90;99.90;;;;;;5054059;28;19970;-44
2023/07/12 05:19:33;;;;;;;;;;;17.90;99.90;;;;;;5056256;28;19975;-44
2023/07/12 05:22:01;;;;;;;;;;;18.00;99.90;;;;;;5095983;28;19931;-43
2023/07/12 05:24:28;;;;;;;;;;;18.10;99.90;;;;;;5062343;28;19944;-44
2023/07/12 05:26:56;;;;;;;;;;;18.20;99.90;;;;;;5057847;28;19928;-43
2023/07/12 05:29:22;;;;;;;;;;;18.20;99.90;;;;;;5060595;28;19932;-43
2023/07/12 05:31:49;;;;;;;;;;;18.20;99.90;;;;;;5065830;28;19985;-44
2023/07/12 05:34:16;;;;;;;;;;;18.20;99.90;;;;;;5062619;28;19986;-43
2023/07/12 05:36:43;;;;;;;;;;;18.20;99.90;;;;;;5067350;28;19985;-42
2023/07/12 05:39:11;;;;;;;;;;;18.20;99.90;;;;;;5088878;28;19935;-44
2023/07/12 05:41:37;;;;;;;;;;;18.10;99.90;;;;;;5088744;28;20252;-44
2023/07/12 05:44:04;;;;;;;;;;;18.10;99.90;;;;;;5090961;28;19924;-44
2023/07/12 05:46:31;;;;;;;;;;;18.10;99.90;;;;;;5087453;28;19924;-44
2023/07/12 05:48:58;;;;;;;;;;;18.10;99.90;;;;;;5088247;28;19928;-43
2023/07/12 05:51:25;;;;;;;;;;;18.10;99.90;;;;;;5092382;28;19935;-43
2023/07/12 05:53:51;;;;;;;;;;;18.10;99.90;;;;;;5091543;28;19947;-43
2023/07/12 05:56:19;;;;;;;;;;;18.10;99.90;;;;;;5092273;28;19927;-43
2023/07/12 05:58:46;;;;;;;;;;;18.10;99.90;;;;;;5091212;28;19961;-43
2023/07/12 06:01:13;;;;;;;;;;;18.20;99.90;;;;;;5088838;28;19924;-43
2023/07/12 06:03:39;;;;;;;;;;;18.20;99.90;;;;;;5091029;28;19924;-43
2023/07/12 06:06:06;;;;;;;;;;;18.30;99.90;;;;;;5091665;28;19973;-44
2023/07/12 06:08:33;;;;;;;;;;;18.40;99.90;;;;;;5087552;28;20406;-43
2023/07/12 06:11:00;;;;;;;;;;;18.50;99.90;;;;;;5092385;28;19935;-44
2023/07/12 06:13:28;;;;;;;;;;;18.50;99.90;;;;;;5096075;28;19924;-44
2023/07/12 06:15:55;;;;;;;;;;;18.50;99.90;;;;;;5127092;27;19986;-43
2023/07/12 06:18:22;;;;;;;;;;;18.60;99.90;;;;;;5093632;28;19924;-44
2023/07/12 06:20:50;;;;;;;;;;;18.60;99.90;;;;;;5095299;28;19924;-44
2023/07/12 06:23:17;;;;;;;;;;;18.60;99.90;;;;;;5096107;28;19989;-43
2023/07/12 06:25:44;;;;;;;;;;;18.60;99.90;;;;;;5091923;28;19928;-43
2023/07/12 06:28:10;;;;;;;;;;;18.70;99.90;;;;;;5076132;28;20327;-43
2023/07/12 06:30:39;;;;;;;;;;;18.70;99.90;;;;;;5086423;28;20379;-43
2023/07/12 06:33:05;;;;;;;;;;;18.80;99.90;;;;;;5096017;28;19934;-44
2023/07/12 06:35:32;;;;;;;;;;;18.90;99.90;;;;;;5077720;28;19931;-43
2023/07/12 06:37:59;;;;;;;;;;;19.00;99.90;;;;;;5075686;28;20368;-43
2023/07/12 06:40:25;;;;;;;;;;;19.10;99.90;;;;;;5074741;28;19929;-43
2023/07/12 06:42:52;;;;;;;;;;;19.20;99.90;;;;;;5074763;28;20029;-43
2023/07/12 06:45:19;;;;;;;;;;;19.20;99.90;;;;;;5075701;28;20304;-43
2023/07/12 06:47:47;;;;;;;;;;;19.20;99.90;;;;;;5093492;28;20021;-43
2023/07/12 06:50:14;;;;;;;;;;;19.30;99.90;;;;;;5129065;27;19931;-43
2023/07/12 06:52:40;;;;;;;;;;;19.40;99.90;;;;;;5095864;28;19924;-43
2023/07/12 06:55:07;;;;;;;;;;;19.50;99.90;;;;;;5095435;28;19924;-43
2023/07/12 06:57:34;;;;;;;;;;;19.50;99.90;;;;;;5095771;28;19928;-43
2023/07/12 07:00:04;;;;;;;;;;;19.50;99.90;;;;;;5091991;28;19931;-43
2023/07/12 07:02:31;;;;;;;;;;;19.60;99.90;;;;;;5093841;28;19924;-43
2023/07/12 07:04:59;;;;;;;;;;;19.60;99.90;;;;;;5095472;28;20018;-43
2023/07/12 07:07:25;;;;;;;;;;;19.60;99.90;;;;;;5095593;28;19950;-43
2023/07/12 07:09:52;;;;;;;;;;;19.70;99.90;;;;;;5095237;28;19924;-43
2023/07/12 07:12:19;;;;;;;;;;;19.60;99.90;;;;;;5094459;28;20002;-43
2023/07/12 07:14:45;;;;;;;;;;;19.70;99.90;;;;;;5093233;28;19968;-43
2023/07/12 07:17:12;;;;;;;;;;;19.70;99.90;;;;;;5095465;28;19931;-43
2023/07/12 07:19:39;;;;;;;;;;;19.70;99.90;;;;;;5094025;28;20379;-44
2023/07/12 07:22:07;;;;;;;;;;;19.80;99.90;;;;;;5094732;28;19932;-44
2023/07/12 07:24:34;;;;;;;;;;;19.90;99.90;;;;;;5094851;28;19924;-43
2023/07/12 07:27:01;;;;;;;;;;;20.00;99.90;;;;;;5080220;28;19924;-43
2023/07/12 07:29:27;;;;;;;;;;;20.00;99.90;;;;;;5091027;28;20387;-44
2023/07/12 07:31:54;;;;;;;;;;;20.10;99.90;;;;;;5095098;28;19924;-42
2023/07/12 07:34:21;;;;;;;;;;;20.20;99.90;;;;;;5094791;28;20376;-43
2023/07/12 07:36:47;;;;;;;;;;;20.30;99.90;;;;;;5084179;28;20384;-43
2023/07/12 07:39:15;;;;;;;;;;;20.30;99.90;;;;;;5073380;28;19928;-43
2023/07/12 07:41:42;;;;;;;;;;;20.30;99.90;;;;;;5074651;28;19970;-43
2023/07/12 07:44:08;;;;;;;;;;;20.40;99.90;;;;;;5073661;28;19981;-43
2023/07/12 07:46:35;;;;;;;;;;;20.40;99.90;;;;;;5127872;27;19970;-43
2023/07/12 07:49:02;;;;;;;;;;;20.50;99.90;;;;;;5093560;28;19924;-43
2023/07/12 07:51:28;;;;;;;;;;;20.40;99.90;;;;;;5094757;28;20295;-43
2023/07/12 07:53:55;;;;;;;;;;;20.40;99.90;;;;;;5092651;28;19931;-43
2023/07/12 07:56:23;;;;;;;;;;;20.40;99.90;;;;;;5093575;28;20307;-44
2023/07/12 07:58:50;;;;;;;;;;;20.40;99.90;;;;;;5127793;27;19924;-43
2023/07/12 08:01:17;;;;;;;;;;;20.50;99.90;;;;;;5094260;28;19939;-43
2023/07/12 08:03:43;;;;;;;;;;;20.50;99.90;;;;;;5093280;28;20027;-43
2023/07/12 08:06:10;;;;;;;;;;;20.60;99.90;;;;;;5094163;28;19931;-44
2023/07/12 08:08:37;;;;;;;;;;;20.70;99.90;;;;;;5093058;28;19924;-43
2023/07/12 08:11:05;;;;;;;;;;;20.80;99.90;;;;;;5092202;28;19947;-44
2023/07/12 08:13:33;;;;;;;;;;;20.90;99.90;;;;;;5094285;28;20251;-43
2023/07/12 08:15:59;;;;;;;;;;;21.10;99.90;;;;;;5086981;28;20525;-44
2023/07/12 08:18:26;;;;;;;;;;;21.20;99.90;;;;;;5093905;28;19947;-43
2023/07/12 08:20:53;;;;;;;;;;;21.20;99.90;;;;;;5093752;28;19924;-43
2023/07/12 08:23:20;;;;;;;;;;;21.30;99.90;;;;;;5093887;28;20028;-44
2023/07/12 08:25:48;;;;;;;;;;;21.30;99.90;;;;;;5089312;28;19928;-44
2023/07/12 08:28:15;;;;;;;;;;;21.30;99.90;;;;;;5080699;28;19924;-43
2023/07/12 08:30:43;;;;;;;;;;;21.20;99.90;;;;;;5093825;28;19924;-43
2023/07/12 08:33:10;;;;;;;;;;;21.20;99.90;;;;;;5092870;28;19957;-44
2023/07/12 08:35:36;;;;;;;;;;;21.20;99.90;;;;;;5123346;27;19938;-43
2023/07/12 08:38:03;;;;;;;;;;;21.40;99.90;;;;;;5093627;28;19970;-44
2023/07/12 08:40:30;;;;;;;;;;;21.50;99.90;;;;;;5092415;28;19928;-44
2023/07/12 08:42:58;;;;;;;;;;;21.50;99.90;;;;;;5077664;28;19932;-43
2023/07/12 08:45:27;;;;;;;;;;;21.50;99.90;;;;;;5073303;28;19970;-43
2023/07/12 08:47:57;;;;;;;;;;;21.40;99.90;;;;;;5072036;28;19967;-42
2023/07/12 08:50:24;;;;;;;;;;;21.40;99.90;;;;;;5077967;28;19927;-43
2023/07/12 08:52:50;;;;;;;;;;;21.20;99.90;;;;;;5126704;27;20327;-44
2023/07/12 08:55:18;;;;;;;;;;;21.00;99.90;;;;;;5093482;28;20407;-43
2023/07/12 08:57:45;;;;;;;;;;;20.80;99.90;;;;;;5093497;28;19935;-43
2023/07/12 09:00:14;;;;;;;;;;;20.60;99.90;;;;;;5093340;28;19924;-43
2023/07/12 09:02:40;;;;;;;;;;;20.50;99.90;;;;;;5092769;28;19924;-43
2023/07/12 09:05:12;;;;;;;;;;;20.40;99.90;;;;;;5093046;28;19928;-44
2023/07/12 09:07:39;;;;;;;;;;;20.40;99.90;;;;;;5089605;28;19947;-44
2023/07/12 09:10:06;;;;;;;;;;;20.30;99.90;;;;;;5092208;28;20368;-44
2023/07/12 09:12:34;;;;;;;;;;;20.30;99.90;;;;;;5093085;28;20035;-43
2023/07/12 09:15:02;;;;;;;;;;;20.30;99.90;;;;;;5093026;28;20355;-43
2023/07/12 09:17:29;;;;;;;;;;;20.30;99.90;;;;;;5092629;28;20368;-43
2023/07/12 09:19:56;;;;;;;;;;;20.40;99.90;;;;;;5092042;28;19931;-43
2023/07/12 09:22:24;;;;;;;;;;;20.40;99.90;;;;;;5093067;28;19931;-44
2023/07/12 09:24:51;;;;;;;;;;;20.50;99.90;;;;;;5089737;28;19924;-44
2023/07/12 09:27:18;;;;;;;;;;;20.70;99.90;;;;;;5076177;28;19929;-43
2023/07/12 09:29:45;;;;;;;;;;;20.90;99.90;;;;;;5088461;28;20372;-44
2023/07/12 09:32:15;;;;;;;;;;;21.20;99.90;;;;;;5072411;28;19931;-43
2023/07/12 09:34:42;;;;;;;;;;;21.40;99.90;;;;;;5086738;28;19924;-43
2023/07/12 09:37:11;;;;;;;;;;;21.70;99.90;;;;;;5125962;27;19941;-44
2023/07/12 09:39:39;;;;;;;;;;;21.90;99.90;;;;;;5092622;28;19931;-45
2023/07/12 09:42:06;;;;;;;;;;;22.10;99.90;;;;;;5092755;28;19970;-42
2023/07/12 09:44:32;;;;;;;;;;;22.10;99.90;;;;;;5087666;28;20296;-42
2023/07/12 09:47:00;;;;;;;;;;;22.00;99.90;;;;;;5071923;28;19928;-42
2023/07/12 09:49:29;;;;;;;;;;;21.90;99.90;;;;;;5089021;28;19924;-42
2023/07/12 09:51:58;;;;;;;;;;;21.80;99.90;;;;;;5092607;28;19924;-41
2023/07/12 09:54:28;;;;;;;;;;;21.50;99.90;;;;;;5092475;28;20440;-42
2023/07/12 09:56:57;;;;;;;;;;;21.30;99.90;;;;;;5092352;28;20280;-42
2023/07/12 09:59:29;;;;;;;;;;;21.10;99.90;;;;;;5092533;28;19932;-42
2023/07/12 10:01:57;;;;;;;;;;;20.90;99.90;;;;;;5091223;28;19924;-42
2023/07/12 10:04:32;;;;;;;;;;;21.00;99.90;;;;;;5105685;28;20423;-42
2023/07/12 10:06:59;;;;;;;;;;;21.10;99.90;;;;;;5092405;28;19932;-43
2023/07/12 10:09:27;;;;;;;;;;;21.10;99.90;;;;;;5092480;28;19924;-43
2023/07/12 10:11:55;;;;;;;;;;;21.30;99.90;;;;;;5088523;28;19963;-42
2023/07/12 10:14:28;;;;;;;;;;;21.60;99.90;;;;;;5091131;28;19938;-44
2023/07/12 10:16:55;;;;;;;;;;;21.80;99.90;;;;;;5091497;28;20288;-42
2023/07/12 10:19:23;;;;;;;;;;;22.00;99.90;;;;;;5092036;28;19924;-42
2023/07/12 10:21:50;;;;;;;;;;;22.00;99.90;;;;;;5125233;28;20387;-42
2023/07/12 10:24:17;;;;;;;;;;;22.00;99.90;;;;;;5091082;28;19924;-41
2023/07/12 10:26:44;;;;;;;;;;;22.10;99.90;;;;;;5089847;28;19924;-42
2023/07/12 10:29:11;;;;;;;;;;;22.30;99.90;;;;;;5092352;28;19931;-43
2023/07/12 10:31:42;;;;;;;;;;;22.50;99.90;;;;;;5092328;28;19935;-43
2023/07/12 10:34:17;;;;;;;;;;;22.60;99.90;;;;;;5092350;28;19924;-45
2023/07/12 10:36:44;;;;;;;;;;;22.70;99.90;;;;;;5092134;28;19931;-43
2023/07/12 10:39:11;;;;;;;;;;;22.70;99.90;;;;;;5091409;28;19924;-41
2023/07/12 10:41:39;;;;;;;;;;;22.90;99.90;;;;;;5092234;28;19928;-42
2023/07/12 10:44:07;;;;;;;;;;;23.00;99.90;;;;;;5091136;28;20364;-42
2023/07/12 10:46:34;;;;;;;;;;;23.10;99.90;;;;;;5090508;28;20042;-43
2023/07/12 10:49:04;;;;;;;;;;;23.00;99.90;;;;;;5091864;28;20394;-42
2023/07/12 10:51:32;;;;;;;;;;;22.90;99.90;;;;;;5091782;28;19931;-44
2023/07/12 10:53:59;;;;;;;;;;;22.80;99.90;;;;;;5091712;28;19928;-43
2023/07/12 10:56:26;;;;;;;;;;;22.70;99.90;;;;;;5092218;28;19924;-44
2023/07/12 10:58:56;;;;;;;;;;;22.60;99.90;;;;;;5090035;28;19978;-42
2023/07/12 11:01:41;;;;;;;;;;;22.60;99.90;;;;;;5074800;28;19932;-43
2023/07/12 11:04:09;;;;;;;;;;;22.70;99.90;;;;;;5065745;28;19924;-42
2023/07/12 11:06:36;;;;;;;;;;;22.70;99.90;;;;;;5071527;28;19928;-43
2023/07/12 11:09:03;;;;;;;;;;;22.70;99.90;;;;;;5059238;28;19929;-43
2023/07/12 11:11:33;;;;;;;;;;;22.70;99.90;;;;;;5101464;27;20285;-42
2023/07/12 11:14:00;;;;;;;;;;;22.60;99.90;;;;;;5110048;27;20006;-43
2023/07/12 11:16:27;;;;;;;;;;;22.50;99.90;;;;;;5072306;28;19925;-42
2023/07/12 11:18:56;;;;;;;;;;;22.50;99.90;;;;;;5066800;28;19972;-43
2023/07/12 11:21:27;;;;;;;;;;;22.70;99.90;;;;;;5076235;28;19982;-43
2023/07/12 11:23:54;;;;;;;;;;;22.90;99.90;;;;;;5075858;28;19925;-41
2023/07/12 11:26:22;;;;;;;;;;;23.00;99.90;;;;;;5102382;28;20328;-43
2023/07/12 11:28:48;;;;;;;;;;;23.20;99.90;;;;;;5067502;28;20441;-43
2023/07/12 11:31:17;;;;;;;;;;;23.50;99.90;;;;;;5064998;28;20410;-42
2023/07/12 11:33:45;;;;;;;;;;;23.70;99.90;;;;;;5075440;28;19924;-43
2023/07/12 11:36:18;;;;;;;;;;;23.90;99.90;;;;;;5068678;28;19929;-42
2023/07/12 11:38:48;;;;;;;;;;;24.10;99.90;;;;;;5071546;28;19998;-43
2023/07/12 11:41:15;;;;;;;;;;;24.40;99.90;;;;;;5061535;28;19925;-43
2023/07/12 11:43:42;;;;;;;;;;;24.60;99.90;;;;;;5062818;28;19924;-42
2023/07/12 11:46:13;;;;;;;;;;;24.80;99.90;;;;;;5072229;28;19928;-43
2023/07/12 11:48:42;;;;;;;;;;;24.90;99.90;;;;;;5078143;28;20423;-42
2023/07/12 11:51:09;;;;;;;;;;;25.00;99.50;;;;;;5078997;28;19974;-43
2023/07/12 11:53:36;;;;;;;;;;;25.00;98.50;;;;;;5063729;28;19931;-43
2023/07/12 11:56:05;;;;;;;;;;;25.10;98.50;;;;;;5072735;28;20253;-44
2023/07/12 11:58:32;;;;;;;;;;;25.10;98.20;;;;;;5064696;28;20426;-43
2023/07/12 12:01:00;;;;;;;;;;;24.90;97.00;;;;;;5073261;28;19982;-43
2023/07/12 12:03:26;;;;;;;;;;;25.00;97.80;;;;;;5066863;28;19925;-43
2023/07/12 12:05:54;;;;;;;;;;;25.10;98.20;;;;;;5072312;28;19973;-44
2023/07/12 12:08:21;;;;;;;;;;;25.30;97.50;;;;;;5074616;28;19924;-43
2023/07/12 12:10:48;;;;;;;;;;;25.40;97.10;;;;;;5068513;28;20191;-43
2023/07/12 12:13:16;;;;;;;;;;;25.50;96.90;;;;;;5057679;28;19964;-44
2023/07/12 12:15:44;;;;;;;;;;;25.60;97.00;;;;;;5064391;28;19924;-43
2023/07/12 12:18:13;;;;;;;;;;;25.70;95.90;;;;;;5067758;28;20050;-44
2023/07/12 12:20:40;;;;;;;;;;;25.60;95.70;;;;;;5067232;28;19925;-43
2023/07/12 12:23:12;;;;;;;;;;;25.50;95.50;;;;;;5073130;28;19978;-42
2023/07/12 12:25:44;;;;;;;;;;;25.50;95.00;;;;;;5113694;27;19925;-44
2023/07/12 12:28:12;;;;;;;;;;;25.40;94.40;;;;;;5070283;28;19978;-42
2023/07/12 12:30:40;;;;;;;;;;;25.40;94.30;;;;;;5076585;28;19929;-43
2023/07/12 12:33:07;;;;;;;;;;;25.50;95.70;;;;;;5081199;28;19928;-43
2023/07/12 12:35:46;;;;;;;;;;;25.60;95.10;;;;;;5070105;28;19932;-43
2023/07/12 12:38:18;;;;;;;;;;;25.70;93.90;;;;;;5061333;28;19925;-43
2023/07/12 12:40:47;;;;;;;;;;;25.60;93.70;;;;;;5070000;28;19978;-42
2023/07/12 12:43:15;;;;;;;;;;;25.50;94.50;;;;;;5071443;28;20081;-43
2023/07/12 12:45:43;;;;;;;;;;;25.30;94.30;;;;;;5053443;28;20019;-43
2023/07/12 12:48:10;;;;;;;;;;;25.30;94.10;;;;;;5067390;28;19978;-42
2023/07/12 12:50:37;;;;;;;;;;;25.40;95.10;;;;;;5100759;27;19968;-43
2023/07/12 12:53:05;;;;;;;;;;;25.50;94.00;;;;;;5074382;28;20443;-44
2023/07/12 12:55:33;;;;;;;;;;;25.60;93.50;;;;;;5070182;28;20411;-43
2023/07/12 12:58:00;;;;;;;;;;;25.60;91.90;;;;;;5077110;28;19998;-42
2023/07/12 13:00:27;;;;;;;;;;;25.50;92.80;;;;;;5074417;28;20415;-43
2023/07/12 13:02:55;;;;;;;;;;;25.50;93.80;;;;;;5077199;28;20311;-41
2023/07/12 13:05:23;;;;;;;;;;;25.70;93.60;;;;;;5069591;28;19928;-42
2023/07/12 13:07:52;;;;;;;;;;;25.90;93.70;;;;;;5070600;28;20165;-43
2023/07/12 13:10:19;;;;;;;;;;;26.10;92.80;;;;;;5071804;28;20030;-42
2023/07/12 13:12:46;;;;;;;;;;;26.20;92.50;;;;;;5080042;28;19928;-43
2023/07/12 13:15:13;;;;;;;;;;;26.20;89.60;;;;;;5076754;28;19932;-44
2023/07/12 13:17:40;;;;;;;;;;;26.10;91.80;;;;;;5071195;28;19935;-42
2023/07/12 13:20:10;;;;;;;;;;;26.20;91.60;;;;;;5085078;28;19924;-42
2023/07/12 13:22:36;;;;;;;;;;;26.10;90.70;;;;;;5068910;28;19924;-42
2023/07/12 13:25:03;;;;;;;;;;;26.00;90.90;;;;;;5068243;28;20369;-43
2023/07/12 13:27:30;;;;;;;;;;;26.00;90.30;;;;;;5078598;28;19975;-43
2023/07/12 13:29:57;;;;;;;;;;;26.00;90.40;;;;;;5086081;28;19932;-42
2023/07/12 13:32:23;;;;;;;;;;;26.10;90.90;;;;;;5067597;28;19924;-44
2023/07/12 13:34:50;;;;;;;;;;;26.20;89.80;;;;;;5061403;28;20344;-42
2023/07/12 13:37:20;;;;;;;;;;;26.10;88.00;;;;;;5073660;28;20376;-43
2023/07/12 13:39:47;;;;;;;;;;;26.10;88.90;;;;;;5071862;28;19939;-43
2023/07/12 13:42:14;;;;;;;;;;;26.20;88.30;;;;;;5061030;28;19928;-43
2023/07/12 13:44:41;;;;;;;;;;;26.20;89.40;;;;;;5062278;28;20013;-43
2023/07/12 13:47:11;;;;;;;;;;;26.20;90.20;;;;;;5070887;28;19929;-41
2023/07/12 13:49:37;;;;;;;;;;;26.30;90.00;;;;;;5070242;28;19978;-43
2023/07/12 13:52:04;;;;;;;;;;;26.40;87.70;;;;;;5052193;28;20343;-43
2023/07/12 13:54:32;;;;;;;;;;;26.50;87.80;;;;;;5069431;28;19970;-43
2023/07/12 13:56:59;;;;;;;;;;;26.50;88.40;;;;;;5060428;28;19929;-44
2023/07/12 13:59:26;;;;;;;;;;;26.60;84.30;;;;;;5061661;28;19940;-44
2023/07/12 14:01:52;;;;;;;;;;;26.50;87.10;;;;;;5063866;28;20407;-43
2023/07/12 14:04:20;;;;;;;;;;;26.60;86.80;;;;;;5063235;28;19929;-43
2023/07/12 14:06:47;;;;;;;;;;;26.60;84.60;;;;;;5059441;28;19924;-43
2023/07/12 14:09:13;;;;;;;;;;;26.70;86.00;;;;;;5063826;28;19924;-43
2023/07/12 14:11:41;;;;;;;;;;;26.80;84.20;;;;;;5059548;28;20368;-43
2023/07/12 14:14:10;;;;;;;;;;;26.90;84.60;;;;;;5058790;28;20345;-45
2023/07/12 14:16:37;;;;;;;;;;;27.00;86.70;;;;;;5073329;28;19974;-44